createdAt,value
2018-04-15T00:00:13.121Z,94268.39
2018-04-15T00:02:40.664Z,94270.68
2018-04-15T00:05:08.210Z,94270.37
2018-04-15T00:07:35.765Z,94269.33
2018-04-15T00:10:03.413Z,94264.81
2018-04-15T00:12:30.959Z,94263.22
2018-04-15T00:14:58.507Z,94267.59
2018-04-15T00:17:26.083Z,94272.21
2018-04-15T00:19:53.652Z,94263.00
2018-04-15T00:22:21.200Z,94255.79
2018-04-15T00:24:49.117Z,94251.09
2018-04-15T00:27:16.682Z,94256.81
2018-04-15T00:29:44.239Z,94261.03
2018-04-15T00:32:11.836Z,94258.41
2018-04-15T00:34:39.388Z,94250.39
2018-04-15T00:37:06.938Z,94246.48
2018-04-15T00:39:34.523Z,94245.54
2018-04-15T00:42:02.115Z,94242.97
2018-04-15T00:44:29.662Z,94240.64
2018-04-15T00:46:57.751Z,94234.86
2018-04-15T00:49:25.300Z,94238.53
2018-04-15T00:51:52.850Z,94235.59
2018-04-15T00:54:20.448Z,94232.67
2018-04-15T00:56:47.986Z,94239.41
2018-04-15T00:59:15.528Z,94245.47
2018-04-15T01:01:43.253Z,94245.28
2018-04-15T01:04:10.790Z,94239.75
2018-04-15T01:06:38.337Z,94245.63
2018-04-15T01:09:07.011Z,94254.27
2018-04-15T01:11:34.564Z,94257.48
2018-04-15T01:14:02.127Z,94260.81
2018-04-15T01:16:29.720Z,94268.97
2018-04-15T01:18:57.256Z,94261.81
2018-04-15T01:21:24.804Z,94261.73
2018-04-15T01:23:52.480Z,94265.02
2018-04-15T01:26:20.056Z,94264.16
2018-04-15T01:28:47.603Z,94264.16
2018-04-15T01:31:15.172Z,94267.02
2018-04-15T01:33:42.712Z,94263.84
2018-04-15T01:36:10.261Z,94262.39
2018-04-15T01:38:37.982Z,94266.63
2018-04-15T01:41:05.518Z,94268.05
2018-04-15T01:43:33.062Z,94266.97
2018-04-15T01:46:00.957Z,94255.76
2018-04-15T01:48:28.517Z,94259.59
2018-04-15T01:50:56.078Z,94263.11
2018-04-15T01:53:23.666Z,94261.19
2018-04-15T01:55:51.222Z,94260.36
2018-04-15T01:58:18.774Z,94254.02
2018-04-15T02:00:46.368Z,94252.84
2018-04-15T02:03:13.931Z,94243.27
2018-04-15T02:05:41.475Z,94242.01
2018-04-15T02:08:09.058Z,94235.81
2018-04-15T02:10:36.599Z,94242.64
2018-04-15T02:13:04.160Z,94246.93
2018-04-15T02:15:31.730Z,94245.49
2018-04-15T02:17:59.276Z,94247.30
2018-04-15T02:20:26.811Z,94246.03
2018-04-15T02:22:54.698Z,94247.80
2018-04-15T02:25:22.253Z,94248.39
2018-04-15T02:27:49.808Z,94245.02
2018-04-15T02:30:17.379Z,94248.88
2018-04-15T02:32:44.928Z,94242.00
2018-04-15T02:35:12.475Z,94241.31
2018-04-15T02:37:40.067Z,94233.82
2018-04-15T02:40:07.619Z,94239.13
2018-04-15T02:42:35.175Z,94243.08
2018-04-15T02:45:02.776Z,94232.09
2018-04-15T02:47:30.340Z,94234.55
2018-04-15T02:49:57.893Z,94237.56
2018-04-15T02:52:25.564Z,94227.58
2018-04-15T02:54:53.117Z,94234.62
2018-04-15T02:57:20.656Z,94236.91
2018-04-15T02:59:48.263Z,94235.47
2018-04-15T03:02:15.805Z,94236.98
2018-04-15T03:04:43.340Z,94238.41
2018-04-15T03:07:10.913Z,94237.08
2018-04-15T03:09:38.444Z,94240.78
2018-04-15T03:12:05.992Z,94234.48
2018-04-15T03:14:33.560Z,94243.20
2018-04-15T03:17:01.103Z,94242.80
2018-04-15T03:19:28.652Z,94255.76
2018-04-15T03:21:56.221Z,94249.89
2018-04-15T03:24:23.772Z,94254.08
2018-04-15T03:26:51.321Z,94255.83
2018-04-15T03:29:18.993Z,94253.47
2018-04-15T03:31:46.539Z,94254.16
2018-04-15T03:34:14.074Z,94260.98
2018-04-15T03:36:41.643Z,94257.55
2018-04-15T03:39:09.191Z,94265.77
2018-04-15T03:41:36.741Z,94269.14
2018-04-15T03:44:04.309Z,94272.52
2018-04-15T03:46:31.851Z,94267.63
2018-04-15T03:48:59.398Z,94272.89
2018-04-15T03:51:26.963Z,94272.56
2018-04-15T03:53:54.512Z,94270.32
2018-04-15T03:56:22.052Z,94270.08
2018-04-15T03:58:49.934Z,94267.96
2018-04-15T04:01:17.505Z,94274.09
2018-04-15T04:03:45.052Z,94279.61
2018-04-15T04:06:12.777Z,94288.95
2018-04-15T04:08:40.316Z,94287.44
2018-04-15T04:11:07.855Z,94293.23
2018-04-15T04:13:35.455Z,94293.55
2018-04-15T04:16:03.031Z,94304.78
2018-04-15T04:18:42.252Z,94308.16
2018-04-15T04:21:21.542Z,94309.45
2018-04-15T04:24:00.790Z,94310.85
2018-04-15T04:26:28.336Z,94308.64
2018-04-15T04:28:55.914Z,94298.02
2018-04-15T04:31:23.498Z,94301.33
2018-04-15T04:33:51.037Z,94291.24
2018-04-15T04:36:18.571Z,94294.59
2018-04-15T04:38:46.178Z,94287.88
2018-04-15T04:41:13.728Z,94279.84
2018-04-15T04:43:41.275Z,94279.94
2018-04-15T04:46:08.836Z,94279.41
2018-04-15T04:48:36.381Z,94280.75
2018-04-15T04:51:03.934Z,94284.42
2018-04-15T04:53:31.657Z,94285.70
2018-04-15T04:55:59.201Z,94275.41
2018-04-15T04:58:26.760Z,94276.28
2018-04-15T05:00:54.476Z,94286.67
2018-04-15T05:03:22.046Z,94285.86
2018-04-15T05:05:49.629Z,94284.65
2018-04-15T05:08:17.300Z,94298.05
2018-04-15T05:10:44.840Z,94291.28
2018-04-15T05:13:12.396Z,94289.02
2018-04-15T05:15:40.019Z,94292.87
2018-04-15T05:18:07.544Z,94295.05
2018-04-15T05:20:35.082Z,94289.14
2018-04-15T05:23:02.821Z,94288.16
2018-04-15T05:25:30.376Z,94289.67
2018-04-15T05:27:57.992Z,94301.20
2018-04-15T05:30:25.737Z,94302.05
2018-04-15T05:32:53.285Z,94301.69
2018-04-15T05:35:20.836Z,94293.08
2018-04-15T05:37:48.529Z,94295.62
2018-04-15T05:40:16.063Z,94301.40
2018-04-15T05:42:43.606Z,94308.37
2018-04-15T05:45:11.185Z,94307.17
2018-04-15T05:47:38.756Z,94309.69
2018-04-15T05:50:06.332Z,94303.17
2018-04-15T05:52:33.904Z,94300.58
2018-04-15T05:55:01.449Z,94308.30
2018-04-15T05:57:28.998Z,94317.42
2018-04-15T05:59:56.582Z,94320.56
2018-04-15T06:02:24.120Z,94319.67
2018-04-15T06:04:51.662Z,94320.55
2018-04-15T06:07:19.524Z,94323.24
2018-04-15T06:09:47.065Z,94317.67
2018-04-15T06:12:14.635Z,94323.88
2018-04-15T06:14:42.237Z,94324.83
2018-04-15T06:17:09.787Z,94330.13
2018-04-15T06:19:37.356Z,94332.68
2018-04-15T06:22:04.961Z,94331.30
2018-04-15T06:24:32.524Z,94331.05
2018-04-15T06:27:00.082Z,94336.80
2018-04-15T06:29:27.775Z,94335.17
2018-04-15T06:31:56.204Z,94337.73
2018-04-15T06:34:23.756Z,94331.88
2018-04-15T06:36:51.536Z,94333.28
2018-04-15T06:39:19.073Z,94331.93
2018-04-15T06:41:46.629Z,94337.97
2018-04-15T06:44:14.222Z,94339.02
2018-04-15T06:46:41.776Z,94333.02
2018-04-15T06:49:09.324Z,94335.48
2018-04-15T06:51:37.904Z,94342.87
2018-04-15T06:54:05.459Z,94344.50
2018-04-15T06:56:33.037Z,94353.67
2018-04-15T06:59:00.633Z,94348.59
2018-04-15T07:01:28.227Z,94354.25
2018-04-15T07:03:55.766Z,94356.41
2018-04-15T07:06:23.441Z,94356.67
2018-04-15T07:08:50.981Z,94353.84
2018-04-15T07:11:18.556Z,94360.55
2018-04-15T07:13:46.287Z,94362.05
2018-04-15T07:16:13.823Z,94357.91
2018-04-15T07:18:41.392Z,94356.77
2018-04-15T07:21:09.127Z,94365.44
2018-04-15T07:23:36.673Z,94360.44
2018-04-15T07:26:04.244Z,94360.73
2018-04-15T07:28:31.827Z,94364.27
2018-04-15T07:30:59.368Z,94349.96
2018-04-15T07:33:27.145Z,94356.39
2018-04-15T07:35:54.908Z,94350.89
2018-04-15T07:38:22.481Z,94356.16
2018-04-15T07:40:50.048Z,94363.17
2018-04-15T07:43:17.642Z,94357.66
2018-04-15T07:45:45.216Z,94349.58
2018-04-15T07:48:12.784Z,94351.29
2018-04-15T07:50:40.372Z,94349.56
2018-04-15T07:53:07.921Z,94349.30
2018-04-15T07:55:35.475Z,94346.80
2018-04-15T07:58:03.196Z,94347.37
2018-04-15T08:00:30.737Z,94338.34
2018-04-15T08:02:58.301Z,94340.86
2018-04-15T08:05:25.857Z,94327.25
2018-04-15T08:07:53.403Z,94333.47
2018-04-15T08:10:21.000Z,94335.86
2018-04-15T08:12:48.545Z,94333.17
2018-04-15T08:15:16.087Z,94328.65
2018-04-15T08:17:43.830Z,94326.57
2018-04-15T08:20:11.390Z,94326.05
2018-04-15T08:22:38.932Z,94326.09
2018-04-15T08:25:06.526Z,94318.22
2018-04-15T08:27:34.064Z,94313.31
2018-04-15T08:30:01.629Z,94308.19
2018-04-15T08:32:29.212Z,94312.52
2018-04-15T08:34:56.762Z,94297.91
2018-04-15T08:37:24.304Z,94308.79
2018-04-15T08:39:51.890Z,94300.77
2018-04-15T08:42:19.440Z,94310.23
2018-04-15T08:44:46.979Z,94311.92
2018-04-15T08:47:14.578Z,94302.24
2018-04-15T08:49:42.122Z,94307.37
2018-04-15T08:52:09.679Z,94307.79
2018-04-15T08:54:37.253Z,94303.27
2018-04-15T08:57:04.839Z,94302.95
2018-04-15T08:59:32.389Z,94298.48
2018-04-15T09:02:00.157Z,94299.73
2018-04-15T09:04:27.696Z,94295.73
2018-04-15T09:06:55.246Z,94292.27
2018-04-15T09:09:22.832Z,94288.16
2018-04-15T09:11:50.423Z,94271.55
2018-04-15T09:14:17.960Z,94272.97
2018-04-15T09:16:45.747Z,94274.63
2018-04-15T09:19:13.302Z,94267.98
2018-04-15T09:21:40.850Z,94263.13
2018-04-15T09:24:08.624Z,94256.85
2018-04-15T09:26:36.186Z,94264.20
2018-04-15T09:29:03.741Z,94255.52
2018-04-15T09:31:31.575Z,94248.95
2018-04-15T09:33:59.122Z,94239.84
2018-04-15T09:36:26.686Z,94234.17
2018-04-15T09:38:54.423Z,94233.64
2018-04-15T09:41:21.971Z,94237.86
2018-04-15T09:43:49.507Z,94237.75
2018-04-15T09:46:17.136Z,94230.20
2018-04-15T09:48:44.680Z,94227.25
2018-04-15T09:51:12.233Z,94227.83
2018-04-15T09:53:39.817Z,94228.39
2018-04-15T09:56:07.358Z,94223.16
2018-04-15T09:58:34.912Z,94231.58
2018-04-15T10:01:03.325Z,94220.91
2018-04-15T10:03:30.896Z,94236.95
2018-04-15T10:05:58.468Z,94225.12
2018-04-15T10:08:26.057Z,94226.66
2018-04-15T10:10:53.648Z,94217.77
2018-04-15T10:13:21.180Z,94221.33
2018-04-15T10:15:48.769Z,94213.46
2018-04-15T10:18:16.312Z,94214.41
2018-04-15T10:20:43.860Z,94208.87
2018-04-15T10:23:11.594Z,94206.36
2018-04-15T10:25:39.148Z,94204.77
2018-04-15T10:28:06.696Z,94200.14
2018-04-15T10:30:34.408Z,94200.80
2018-04-15T10:33:01.969Z,94200.17
2018-04-15T10:35:29.511Z,94202.06
2018-04-15T10:37:57.415Z,94198.46
2018-04-15T10:40:24.965Z,94204.34
2018-04-15T10:42:52.515Z,94186.06
2018-04-15T10:45:20.400Z,94189.16
2018-04-15T10:47:47.966Z,94185.52
2018-04-15T10:50:15.514Z,94204.92
2018-04-15T10:52:43.095Z,94192.60
2018-04-15T10:55:10.635Z,94184.38
2018-04-15T10:57:38.185Z,94189.41
2018-04-15T11:00:05.904Z,94194.27
2018-04-15T11:02:33.457Z,94184.31
2018-04-15T11:05:01.026Z,94175.09
2018-04-15T11:07:28.887Z,94182.71
2018-04-15T11:09:56.447Z,94186.72
2018-04-15T11:12:24.004Z,94188.89
2018-04-15T11:14:51.610Z,94205.31
2018-04-15T11:17:19.188Z,94185.19
2018-04-15T11:19:46.751Z,94190.80
2018-04-15T11:22:14.361Z,94192.70
2018-04-15T11:24:41.907Z,94208.09
2018-04-15T11:27:09.455Z,94205.45
2018-04-15T11:29:37.034Z,94201.14
2018-04-15T11:32:04.593Z,94227.91
2018-04-15T11:34:32.154Z,94215.16
2018-04-15T11:36:59.891Z,94224.41
2018-04-15T11:39:27.439Z,94215.89
2018-04-15T11:41:54.995Z,94229.76
2018-04-15T11:44:22.748Z,94227.53
2018-04-15T11:46:50.298Z,94227.60
2018-04-15T11:49:17.865Z,94232.52
2018-04-15T11:51:45.673Z,94225.11
2018-04-15T11:54:13.234Z,94220.92
2018-04-15T11:56:40.792Z,94220.16
2018-04-15T11:59:08.378Z,94218.37
2018-04-15T12:01:35.941Z,94217.09
2018-04-15T12:04:03.518Z,94216.59
2018-04-15T12:06:31.097Z,94213.03
2018-04-15T12:08:58.654Z,94209.88
2018-04-15T12:11:26.524Z,94207.52
2018-04-15T12:13:54.084Z,94205.75
2018-04-15T12:16:21.656Z,94202.94
2018-04-15T12:18:49.392Z,94198.66
2018-04-15T12:21:16.950Z,94199.05
2018-04-15T12:23:44.504Z,94196.42
2018-04-15T12:26:12.384Z,94192.73
2018-04-15T12:28:39.938Z,94207.94
2018-04-15T12:31:07.491Z,94194.41
2018-04-15T12:33:35.067Z,94190.63
2018-04-15T12:36:02.641Z,94193.99
2018-04-15T12:38:30.196Z,94190.03
2018-04-15T12:40:57.857Z,94190.36
2018-04-15T12:43:25.407Z,94180.02
2018-04-15T12:45:52.957Z,94177.50
2018-04-15T12:48:20.539Z,94175.62
2018-04-15T12:50:48.085Z,94185.41
2018-04-15T12:53:15.638Z,94172.45
2018-04-15T12:55:43.447Z,94180.22
2018-04-15T12:58:11.012Z,94152.97
2018-04-15T13:00:38.592Z,94157.64
2018-04-15T13:03:06.202Z,94166.31
2018-04-15T13:05:33.749Z,94160.21
2018-04-15T13:08:01.292Z,94171.78
2018-04-15T13:10:28.852Z,94187.96
2018-04-15T13:12:56.421Z,94172.84
2018-04-15T13:15:24.012Z,94170.02
2018-04-15T13:17:51.622Z,94170.44
2018-04-15T13:20:19.172Z,94170.14
2018-04-15T13:22:46.731Z,94173.11
2018-04-15T13:25:14.420Z,94172.55
2018-04-15T13:27:41.964Z,94177.35
2018-04-15T13:30:09.512Z,94168.55
2018-04-15T13:32:37.114Z,94173.61
2018-04-15T13:35:04.699Z,94182.34
2018-04-15T13:37:32.251Z,94159.53
2018-04-15T13:40:00.040Z,94180.66
2018-04-15T13:42:27.614Z,94173.98
2018-04-15T13:44:55.174Z,94157.88
2018-04-15T13:47:22.915Z,94158.22
2018-04-15T13:49:50.499Z,94155.19
2018-04-15T13:52:18.057Z,94169.39
2018-04-15T13:54:45.766Z,94162.16
2018-04-15T13:57:13.338Z,94164.38
2018-04-15T13:59:40.896Z,94159.00
2018-04-15T14:02:08.608Z,94163.92
2018-04-15T14:04:36.164Z,94166.47
2018-04-15T14:07:03.730Z,94163.28
2018-04-15T14:09:31.621Z,94173.65
2018-04-15T14:11:59.159Z,94169.35
2018-04-15T14:14:26.737Z,94162.72
2018-04-15T14:16:54.337Z,94169.39
2018-04-15T14:19:21.878Z,94177.69
2018-04-15T14:21:49.470Z,94172.72
2018-04-15T14:24:17.081Z,94175.86
2018-04-15T14:26:44.636Z,94156.78
2018-04-15T14:29:12.196Z,94149.72
2018-04-15T14:31:40.077Z,94151.99
2018-04-15T14:34:07.665Z,94151.80
2018-04-15T14:36:35.227Z,94154.51
2018-04-15T14:39:02.848Z,94150.21
2018-04-15T14:41:30.482Z,94146.53
2018-04-15T14:43:58.048Z,94148.31
2018-04-15T14:46:25.780Z,94140.74
2018-04-15T14:48:53.368Z,94155.11
2018-04-15T14:51:20.935Z,94136.55
2018-04-15T14:53:48.667Z,94139.35
2018-04-15T14:56:16.279Z,94140.70
2018-04-15T14:58:43.844Z,94142.12
2018-04-15T15:01:11.458Z,94135.59
2018-04-15T15:03:39.013Z,94137.91
2018-04-15T15:06:06.566Z,94121.44
2018-04-15T15:08:34.221Z,94113.16
2018-04-15T15:11:01.777Z,94106.85
2018-04-15T15:13:29.420Z,94107.23
2018-04-15T15:15:57.257Z,94108.27
2018-04-15T15:18:24.830Z,94119.04
2018-04-15T15:20:52.379Z,94118.20
2018-04-15T15:23:20.134Z,94101.23
2018-04-15T15:25:47.713Z,94103.23
2018-04-15T15:28:15.365Z,94103.19
2018-04-15T15:30:43.121Z,94105.25
2018-04-15T15:33:10.679Z,94092.05
2018-04-15T15:35:38.233Z,94087.13
2018-04-15T15:38:05.985Z,94077.53
2018-04-15T15:40:33.560Z,94063.91
2018-04-15T15:43:01.118Z,94061.64
2018-04-15T15:45:28.853Z,94052.81
2018-04-15T15:47:56.437Z,94045.11
2018-04-15T15:50:24.015Z,94051.28
2018-04-15T15:52:51.776Z,94038.69
2018-04-15T15:55:19.328Z,94041.28
2018-04-15T15:57:46.883Z,94053.28
2018-04-15T16:00:14.505Z,94034.95
2018-04-15T16:02:42.030Z,94040.87
2018-04-15T16:05:09.596Z,94030.17
2018-04-15T16:07:37.488Z,94024.73
2018-04-15T16:10:05.068Z,94029.05
2018-04-15T16:12:32.649Z,94021.67
2018-04-15T16:15:00.226Z,94029.69
2018-04-15T16:17:27.791Z,94036.72
2018-04-15T16:19:55.369Z,94032.56
2018-04-15T16:22:22.977Z,94015.27
2018-04-15T16:24:50.625Z,94026.88
2018-04-15T16:27:18.199Z,94023.13
2018-04-15T16:29:45.800Z,94023.31
2018-04-15T16:32:13.361Z,94016.54
2018-04-15T16:34:40.920Z,94015.40
2018-04-15T16:37:08.525Z,94013.45
2018-04-15T16:39:36.121Z,94011.73
2018-04-15T16:42:03.731Z,94006.80
2018-04-15T16:44:31.529Z,94008.81
2018-04-15T16:46:59.169Z,94012.88
2018-04-15T16:49:26.760Z,94020.59
2018-04-15T16:51:54.406Z,94008.19
2018-04-15T16:54:22.047Z,94004.23
2018-04-15T16:56:49.636Z,94002.30
2018-04-15T16:59:17.284Z,93994.95
2018-04-15T17:01:44.869Z,93999.03
2018-04-15T17:04:12.712Z,93994.75
2018-04-15T17:06:40.532Z,94012.63
2018-04-15T17:09:08.341Z,94003.27
2018-04-15T17:11:36.217Z,94006.95
2018-04-15T17:14:03.839Z,93997.83
2018-04-15T17:16:31.435Z,94007.34
2018-04-15T17:18:59.163Z,94018.27
2018-04-15T17:21:26.854Z,94001.31
2018-04-15T17:23:54.580Z,94023.88
2018-04-15T17:26:22.238Z,94025.13
2018-04-15T17:28:49.825Z,94020.50
2018-04-15T17:31:17.535Z,94015.20
2018-04-15T17:33:45.159Z,94038.80
2018-04-15T17:36:12.770Z,94032.66
2018-04-15T17:38:40.555Z,94038.21
2018-04-15T17:41:08.174Z,94046.72
2018-04-15T17:43:35.767Z,94044.19
2018-04-15T17:46:03.457Z,94060.61
2018-04-15T17:48:31.298Z,94048.72
2018-04-15T17:50:58.893Z,94053.70
2018-04-15T17:53:26.635Z,94074.68
2018-04-15T17:55:54.263Z,94066.67
2018-04-15T17:58:21.976Z,94048.98
2018-04-15T18:00:49.721Z,94060.64
2018-04-15T18:03:17.403Z,94062.79
2018-04-15T18:05:45.266Z,94063.17
2018-04-15T18:08:13.029Z,94072.09
2018-04-15T18:10:40.755Z,94078.08
2018-04-15T18:13:08.374Z,94065.31
2018-04-15T18:15:36.023Z,94068.73
2018-04-15T18:18:03.577Z,94084.78
2018-04-15T18:20:31.388Z,94085.81
2018-04-15T18:22:59.282Z,94097.47
2018-04-15T18:25:26.897Z,94092.56
2018-04-15T18:27:54.724Z,94083.39
2018-04-15T18:30:22.405Z,94076.23
2018-04-15T18:32:50.097Z,94068.61
2018-04-15T18:35:17.669Z,94062.84
2018-04-15T18:37:45.514Z,94055.41
2018-04-15T18:40:13.126Z,94052.02
2018-04-15T18:42:40.728Z,94060.17
2018-04-15T18:45:08.680Z,94079.13
2018-04-15T18:47:36.379Z,94050.64
2018-04-15T18:50:04.167Z,94085.06
2018-04-15T18:52:32.096Z,94066.73
2018-04-15T18:54:59.726Z,94051.89
2018-04-15T18:57:27.528Z,94055.28
2018-04-15T18:59:55.285Z,94057.13
2018-04-15T19:02:22.880Z,94053.56
2018-04-15T19:04:50.455Z,94049.44
2018-04-15T19:07:18.145Z,94058.02
2018-04-15T19:09:45.755Z,94062.45
2018-04-15T19:12:13.362Z,94090.89
2018-04-15T19:14:40.965Z,94069.30
2018-04-15T19:17:08.572Z,94077.39
2018-04-15T19:19:36.205Z,94071.19
2018-04-15T19:22:03.860Z,94079.59
2018-04-15T19:24:31.448Z,94057.59
2018-04-15T19:26:59.025Z,94053.17
2018-04-15T19:29:27.032Z,94067.19
2018-04-15T19:31:54.714Z,94070.40
2018-04-15T19:34:22.388Z,94076.20
2018-04-15T19:36:50.180Z,94084.67
2018-04-15T19:39:17.791Z,94071.37
2018-04-15T19:41:45.391Z,94088.61
2018-04-15T19:44:13.154Z,94088.55
2018-04-15T19:46:40.992Z,94081.38
2018-04-15T19:49:08.604Z,94080.55
2018-04-15T19:51:36.388Z,94073.90
2018-04-15T19:54:03.987Z,94083.69
2018-04-15T19:56:31.566Z,94121.76
2018-04-15T19:58:59.185Z,94078.43
2018-04-15T20:01:26.756Z,94082.44
2018-04-15T20:03:54.328Z,94086.30
2018-04-15T20:06:21.953Z,94082.53
2018-04-15T20:08:49.517Z,94093.21
2018-04-15T20:11:17.147Z,94082.80
2018-04-15T20:13:44.820Z,94087.66
2018-04-15T20:16:12.413Z,94107.14
2018-04-15T20:18:40.005Z,94096.11
2018-04-15T20:21:07.717Z,94076.56
2018-04-15T20:23:35.295Z,94074.67
2018-04-15T20:26:02.860Z,94089.89
2018-04-15T20:28:30.454Z,94094.45
2018-04-15T20:30:58.014Z,94100.20
2018-04-15T20:33:25.585Z,94082.78
2018-04-15T20:35:53.316Z,94099.34
2018-04-15T20:38:20.863Z,94083.66
2018-04-15T20:40:48.451Z,94079.89
2018-04-15T20:43:16.049Z,94102.78
2018-04-15T20:45:43.616Z,94082.42
2018-04-15T20:48:11.231Z,94086.42
2018-04-15T20:50:38.811Z,94116.91
2018-04-15T20:53:06.414Z,94112.26
2018-04-15T20:55:33.993Z,94109.64
2018-04-15T20:58:01.585Z,94120.47
2018-04-15T21:00:29.153Z,94098.77
2018-04-15T21:02:56.706Z,94121.23
2018-04-15T21:05:24.336Z,94105.94
2018-04-15T21:07:51.964Z,94125.28
2018-04-15T21:10:19.540Z,94117.89
2018-04-15T21:12:47.414Z,94121.42
2018-04-15T21:15:14.977Z,94125.39
2018-04-15T21:17:42.520Z,94111.38
2018-04-15T21:20:11.635Z,94117.52
2018-04-15T21:22:39.210Z,94131.04
2018-04-15T21:25:07.679Z,94171.53
2018-04-15T21:27:35.413Z,94121.27
2018-04-15T21:30:02.965Z,94126.25
2018-04-15T21:32:30.555Z,94116.66
2018-04-15T21:34:58.289Z,94120.09
2018-04-15T21:37:25.889Z,94129.03
2018-04-15T21:39:53.470Z,94137.80
2018-04-15T21:42:21.077Z,94131.20
2018-04-15T21:44:48.630Z,94120.31
2018-04-15T21:47:16.183Z,94137.93
2018-04-15T21:49:43.776Z,94132.05
2018-04-15T21:52:11.331Z,94123.52
2018-04-15T21:54:38.877Z,94130.53
2018-04-15T21:57:06.638Z,94123.83
2018-04-15T21:59:34.197Z,94107.72
2018-04-15T22:02:01.762Z,94120.30
2018-04-15T22:04:29.389Z,94117.72
2018-04-15T22:06:56.956Z,94156.04
2018-04-15T22:09:24.503Z,94125.62
2018-04-15T22:12:03.714Z,94111.08
2018-04-15T22:14:31.266Z,94111.83
2018-04-15T22:16:58.820Z,94105.61
2018-04-15T22:19:26.501Z,94117.87
2018-04-15T22:21:54.068Z,94099.45
2018-04-15T22:24:21.649Z,94106.02
2018-04-15T22:26:49.857Z,94120.24
2018-04-15T22:29:17.440Z,94098.95
2018-04-15T22:31:45.023Z,94096.61
2018-04-15T22:34:12.578Z,94109.97
2018-04-15T22:36:40.125Z,94097.57
2018-04-15T22:39:07.712Z,94075.16
2018-04-15T22:41:35.278Z,94062.64
2018-04-15T22:44:02.824Z,94072.80
2018-04-15T22:46:30.544Z,94060.52
2018-04-15T22:48:58.113Z,94060.83
2018-04-15T22:51:25.695Z,94061.55
2018-04-15T22:53:53.424Z,94063.46
2018-04-15T22:56:21.001Z,94052.56
2018-04-15T22:58:48.548Z,94051.25
2018-04-15T23:01:16.188Z,94052.72
2018-04-15T23:03:43.748Z,94041.80
2018-04-15T23:06:11.320Z,94039.32
2018-04-15T23:08:38.916Z,94041.20
2018-04-15T23:11:06.504Z,94044.84
2018-04-15T23:13:34.081Z,94032.09
2018-04-15T23:16:01.676Z,94031.89
2018-04-15T23:18:29.234Z,94025.31
2018-04-15T23:20:56.784Z,94042.63
2018-04-15T23:23:24.348Z,94029.45
2018-04-15T23:25:51.897Z,94028.11
2018-04-15T23:28:19.454Z,94006.14
2018-04-15T23:30:47.058Z,93993.70
2018-04-15T23:33:14.623Z,93998.20
2018-04-15T23:35:42.180Z,93987.37
2018-04-15T23:38:09.772Z,94008.09
2018-04-15T23:40:37.356Z,93994.61
2018-04-15T23:43:04.904Z,93993.89
2018-04-15T23:45:32.628Z,93993.91
2018-04-15T23:48:00.182Z,93989.02
2018-04-15T23:50:27.725Z,93995.53
2018-04-15T23:52:55.470Z,93992.49
2018-04-15T23:55:23.017Z,93980.86
2018-04-15T23:57:50.583Z,93976.20
